sensor_id;sensor_type;location;lat;lon;timestamp;temperature;humidity
2012;DHT22;1009;51.436;6.972;2022-11-14T00:00:09;7.80;99.90
2012;DHT22;1009;51.436;6.972;2022-11-14T00:02:36;7.70;99.90
2012;DHT22;1009;51.436;6.972;2022-11-14T00:05:03;7.60;99.90
2012;DHT22;1009;51.436;6.972;2022-11-14T00:07:31;7.60;99.90
2012;DHT22;1009;51.436;6.972;2022-11-14T00:09:59;7.50;99.90
2012;DHT22;1009;51.436;6.972;2022-11-14T00:12:26;7.60;99.90
2012;DHT22;1009;51.436;6.972;2022-11-14T00:14:53;7.60;99.90
2012;DHT22;1009;51.436;6.972;2022-11-14T00:17:20;7.60;99.90
2012;DHT22;1009;51.436;6.972;2022-11-14T00:19:47;7.60;99.90
2012;DHT22;1009;51.436;6.972;2022-11-14T00:22:13;7.60;99.90
2012;DHT22;1009;51.436;6.972;2022-11-14T00:24:40;7.60;99.90
2012;DHT22;1009;51.436;6.972;2022-11-14T00:27:08;7.70;99.90
2012;DHT22;1009;51.436;6.972;2022-11-14T00:29:35;7.60;99.90
2012;DHT22;1009;51.436;6.972;2022-11-14T00:32:02;7.60;99.90
2012;DHT22;1009;51.436;6.972;2022-11-14T00:34:29;7.60;99.90
2012;DHT22;1009;51.436;6.972;2022-11-14T00:36:56;7.60;99.90
2012;DHT22;1009;51.436;6.972;2022-11-14T00:39:23;7.60;99.90
2012;DHT22;1009;51.436;6.972;2022-11-14T00:41:50;7.50;99.90
2012;DHT22;1009;51.436;6.972;2022-11-14T00:44:18;7.50;99.90
2012;DHT22;1009;51.436;6.972;2022-11-14T00:46:45;7.40;99.90
2012;DHT22;1009;51.436;6.972;2022-11-14T00:49:11;7.30;99.90
2012;DHT22;1009;51.436;6.972;2022-11-14T00:51:38;7.30;99.90
2012;DHT22;1009;51.436;6.972;2022-11-14T00:54:05;7.20;99.90
2012;DHT22;1009;51.436;6.972;2022-11-14T00:56:32;7.10;99.90
2012;DHT22;1009;51.436;6.972;2022-11-14T00:58:58;7.10;99.90
2012;DHT22;1009;51.436;6.972;2022-11-14T01:01:27;7.00;99.90
2012;DHT22;1009;51.436;6.972;2022-11-14T01:03:53;7.00;99.90
2012;DHT22;1009;51.436;6.972;2022-11-14T01:06:20;7.00;99.90
2012;DHT22;1009;51.436;6.972;2022-11-14T01:08:49;7.00;99.90
2012;DHT22;1009;51.436;6.972;2022-11-14T01:11:18;7.10;99.90
2012;DHT22;1009;51.436;6.972;2022-11-14T01:13:45;7.10;99.90
2012;DHT22;1009;51.436;6.972;2022-11-14T01:16:12;7.10;99.90
2012;DHT22;1009;51.436;6.972;2022-11-14T01:18:41;7.10;99.90
2012;DHT22;1009;51.436;6.972;2022-11-14T01:21:09;7.10;99.90
2012;DHT22;1009;51.436;6.972;2022-11-14T01:23:37;7.20;99.90
2012;DHT22;1009;51.436;6.972;2022-11-14T01:26:06;7.20;99.90
2012;DHT22;1009;51.436;6.972;2022-11-14T01:28:33;7.20;99.90
2012;DHT22;1009;51.436;6.972;2022-11-14T01:31:07;7.10;99.90
2012;DHT22;1009;51.436;6.972;2022-11-14T01:33:34;7.10;99.90
2012;DHT22;1009;51.436;6.972;2022-11-14T01:36:03;7.00;99.90
2012;DHT22;1009;51.436;6.972;2022-11-14T01:38:30;6.90;99.90
2012;DHT22;1009;51.436;6.972;2022-11-14T01:40:58;6.90;99.90
2012;DHT22;1009;51.436;6.972;2022-11-14T01:43:29;6.90;99.90
2012;DHT22;1009;51.436;6.972;2022-11-14T01:45:59;6.90;99.90
2012;DHT22;1009;51.436;6.972;2022-11-14T01:48:32;6.90;99.90
2012;DHT22;1009;51.436;6.972;2022-11-14T01:51:04;6.80;99.90
2012;DHT22;1009;51.436;6.972;2022-11-14T01:53:31;6.90;99.90
2012;DHT22;1009;51.436;6.972;2022-11-14T01:56:00;6.80;99.90
2012;DHT22;1009;51.436;6.972;2022-11-14T01:58:29;6.80;99.90
2012;DHT22;1009;51.436;6.972;2022-11-14T02:00:57;6.80;99.90
2012;DHT22;1009;51.436;6.972;2022-11-14T02:03:24;6.80;99.90
2012;DHT22;1009;51.436;6.972;2022-11-14T02:05:51;6.80;99.90
2012;DHT22;1009;51.436;6.972;2022-11-14T02:08:21;6.70;99.90
2012;DHT22;1009;51.436;6.972;2022-11-14T02:10:48;6.70;99.90
2012;DHT22;1009;51.436;6.972;2022-11-14T02:13:15;6.60;99.90
2012;DHT22;1009;51.436;6.972;2022-11-14T02:15:41;6.60;99.90
2012;DHT22;1009;51.436;6.972;2022-11-14T02:18:08;6.60;99.90
2012;DHT22;1009;51.436;6.972;2022-11-14T02:20:38;6.70;99.90
2012;DHT22;1009;51.436;6.972;2022-11-14T02:23:08;6.60;99.90
2012;DHT22;1009;51.436;6.972;2022-11-14T02:25:36;6.60;99.90
2012;DHT22;1009;51.436;6.972;2022-11-14T02:28:04;6.50;99.90
2012;DHT22;1009;51.436;6.972;2022-11-14T02:30:32;6.40;99.90
2012;DHT22;1009;51.436;6.972;2022-11-14T02:32:58;6.40;99.90
2012;DHT22;1009;51.436;6.972;2022-11-14T02:35:25;6.40;99.90
2012;DHT22;1009;51.436;6.972;2022-11-14T02:37:53;6.50;99.90
2012;DHT22;1009;51.436;6.972;2022-11-14T02:40:20;6.50;99.90
2012;DHT22;1009;51.436;6.972;2022-11-14T02:42:47;6.50;99.90
2012;DHT22;1009;51.436;6.972;2022-11-14T02:45:13;6.50;99.90
2012;DHT22;1009;51.436;6.972;2022-11-14T02:47:40;6.40;99.90
2012;DHT22;1009;51.436;6.972;2022-11-14T02:50:08;6.30;99.90
2012;DHT22;1009;51.436;6.972;2022-11-14T02:52:34;6.20;99.90
2012;DHT22;1009;51.436;6.972;2022-11-14T02:55:03;6.10;99.90
2012;DHT22;1009;51.436;6.972;2022-11-14T02:57:30;6.00;99.90
2012;DHT22;1009;51.436;6.972;2022-11-14T02:59:56;5.90;99.90
2012;DHT22;1009;51.436;6.972;2022-11-14T03:02:23;5.90;99.90
2012;DHT22;1009;51.436;6.972;2022-11-14T03:04:50;5.80;99.90
2012;DHT22;1009;51.436;6.972;2022-11-14T03:07:17;5.70;99.90
2012;DHT22;1009;51.436;6.972;2022-11-14T03:09:44;5.60;99.90
2012;DHT22;1009;51.436;6.972;2022-11-14T03:12:14;5.70;99.90
2012;DHT22;1009;51.436;6.972;2022-11-14T03:14:42;5.80;99.90
2012;DHT22;1009;51.436;6.972;2022-11-14T03:17:09;5.80;99.90
2012;DHT22;1009;51.436;6.972;2022-11-14T03:19:35;5.70;99.90
2012;DHT22;1009;51.436;6.972;2022-11-14T03:22:02;5.70;99.90
2012;DHT22;1009;51.436;6.972;2022-11-14T03:24:29;5.70;99.90
2012;DHT22;1009;51.436;6.972;2022-11-14T03:26:56;5.70;99.90
2012;DHT22;1009;51.436;6.972;2022-11-14T03:29:24;5.70;99.90
2012;DHT22;1009;51.436;6.972;2022-11-14T03:31:51;5.70;99.90
2012;DHT22;1009;51.436;6.972;2022-11-14T03:34:18;5.70;99.90
2012;DHT22;1009;51.436;6.972;2022-11-14T03:36:44;5.60;99.90
2012;DHT22;1009;51.436;6.972;2022-11-14T03:39:11;5.50;99.90
2012;DHT22;1009;51.436;6.972;2022-11-14T03:41:38;5.50;99.90
2012;DHT22;1009;51.436;6.972;2022-11-14T03:44:04;5.50;99.90
2012;DHT22;1009;51.436;6.972;2022-11-14T03:46:33;5.50;99.90
2012;DHT22;1009;51.436;6.972;2022-11-14T03:48:59;5.50;99.90
2012;DHT22;1009;51.436;6.972;2022-11-14T03:51:26;5.50;99.90
2012;DHT22;1009;51.436;6.972;2022-11-14T03:53:53;5.40;99.90
2012;DHT22;1009;51.436;6.972;2022-11-14T03:56:20;5.40;99.90
2012;DHT22;1009;51.436;6.972;2022-11-14T03:58:46;5.30;99.90
2012;DHT22;1009;51.436;6.972;2022-11-14T04:01:13;5.30;99.90
2012;DHT22;1009;51.436;6.972;2022-11-14T04:03:41;5.20;99.90
2012;DHT22;1009;51.436;6.972;2022-11-14T04:06:08;5.10;99.90
2012;DHT22;1009;51.436;6.972;2022-11-14T04:08:35;5.00;99.90
2012;DHT22;1009;51.436;6.972;2022-11-14T04:11:01;4.90;99.90
2012;DHT22;1009;51.436;6.972;2022-11-14T04:13:28;4.90;99.90
2012;DHT22;1009;51.436;6.972;2022-11-14T04:15:55;4.90;99.90
2012;DHT22;1009;51.436;6.972;2022-11-14T04:18:22;4.90;99.90
2012;DHT22;1009;51.436;6.972;2022-11-14T04:20:50;5.00;99.90
2012;DHT22;1009;51.436;6.972;2022-11-14T04:23:18;5.00;99.90
2012;DHT22;1009;51.436;6.972;2022-11-14T04:25:45;5.00;99.90
2012;DHT22;1009;51.436;6.972;2022-11-14T04:28:12;4.90;99.90
2012;DHT22;1009;51.436;6.972;2022-11-14T04:30:39;4.90;99.90
2012;DHT22;1009;51.436;6.972;2022-11-14T04:33:06;4.70;99.90
2012;DHT22;1009;51.436;6.972;2022-11-14T04:35:33;4.60;99.90
2012;DHT22;1009;51.436;6.972;2022-11-14T04:38:02;4.70;99.90
2012;DHT22;1009;51.436;6.972;2022-11-14T04:40:29;4.70;99.90
2012;DHT22;1009;51.436;6.972;2022-11-14T04:42:56;4.70;99.90
2012;DHT22;1009;51.436;6.972;2022-11-14T04:45:22;4.70;99.90
2012;DHT22;1009;51.436;6.972;2022-11-14T04:47:49;4.70;99.90
2012;DHT22;1009;51.436;6.972;2022-11-14T04:50:16;4.70;99.90
2012;DHT22;1009;51.436;6.972;2022-11-14T04:52:43;4.60;99.90
2012;DHT22;1009;51.436;6.972;2022-11-14T04:55:11;4.60;99.90
2012;DHT22;1009;51.436;6.972;2022-11-14T04:57:37;4.60;99.90
2012;DHT22;1009;51.436;6.972;2022-11-14T05:00:05;4.60;99.90
2012;DHT22;1009;51.436;6.972;2022-11-14T05:02:32;4.60;99.90
2012;DHT22;1009;51.436;6.972;2022-11-14T05:04:59;4.70;99.90
2012;DHT22;1009;51.436;6.972;2022-11-14T05:07:26;4.70;99.90
2012;DHT22;1009;51.436;6.972;2022-11-14T05:09:52;4.70;99.90
2012;DHT22;1009;51.436;6.972;2022-11-14T05:12:20;4.60;99.90
2012;DHT22;1009;51.436;6.972;2022-11-14T05:14:47;4.70;99.90
2012;DHT22;1009;51.436;6.972;2022-11-14T05:17:14;4.80;99.90
2012;DHT22;1009;51.436;6.972;2022-11-14T05:19:41;4.70;99.90
2012;DHT22;1009;51.436;6.972;2022-11-14T05:22:07;4.70;99.90
2012;DHT22;1009;51.436;6.972;2022-11-14T05:24:34;4.70;99.90
2012;DHT22;1009;51.436;6.972;2022-11-14T05:27:01;4.80;99.90
2012;DHT22;1009;51.436;6.972;2022-11-14T05:29:29;5.00;99.90
2012;DHT22;1009;51.436;6.972;2022-11-14T05:31:56;5.40;99.90
2012;DHT22;1009;51.436;6.972;2022-11-14T05:34:23;5.80;99.90
2012;DHT22;1009;51.436;6.972;2022-11-14T05:36:50;6.10;99.90
2012;DHT22;1009;51.436;6.972;2022-11-14T05:39:20;6.40;99.90
2012;DHT22;1009;51.436;6.972;2022-11-14T05:41:47;6.80;99.90
2012;DHT22;1009;51.436;6.972;2022-11-14T05:44:14;7.00;99.90
2012;DHT22;1009;51.436;6.972;2022-11-14T05:46:42;7.20;99.90
2012;DHT22;1009;51.436;6.972;2022-11-14T05:49:09;7.30;99.90
2012;DHT22;1009;51.436;6.972;2022-11-14T05:51:35;7.40;99.90
2012;DHT22;1009;51.436;6.972;2022-11-14T05:54:02;7.40;99.90
2012;DHT22;1009;51.436;6.972;2022-11-14T05:56:29;7.60;99.90
2012;DHT22;1009;51.436;6.972;2022-11-14T05:58:56;7.50;99.90
2012;DHT22;1009;51.436;6.972;2022-11-14T06:01:23;7.50;99.90
2012;DHT22;1009;51.436;6.972;2022-11-14T06:03:51;7.20;99.90
2012;DHT22;1009;51.436;6.972;2022-11-14T06:06:19;6.90;99.90
2012;DHT22;1009;51.436;6.972;2022-11-14T06:08:47;6.60;99.90
2012;DHT22;1009;51.436;6.972;2022-11-14T06:11:15;6.50;99.90
2012;DHT22;1009;51.436;6.972;2022-11-14T06:13:43;6.30;99.90
2012;DHT22;1009;51.436;6.972;2022-11-14T06:16:14;6.10;99.90
2012;DHT22;1009;51.436;6.972;2022-11-14T06:18:41;6.00;99.90
2012;DHT22;1009;51.436;6.972;2022-11-14T06:21:12;5.90;99.90
2012;DHT22;1009;51.436;6.972;2022-11-14T06:23:39;5.90;99.90
2012;DHT22;1009;51.436;6.972;2022-11-14T06:26:08;5.80;99.90
2012;DHT22;1009;51.436;6.972;2022-11-14T06:28:37;5.90;99.90
2012;DHT22;1009;51.436;6.972;2022-11-14T06:31:07;5.90;99.90
2012;DHT22;1009;51.436;6.972;2022-11-14T06:33:37;5.90;99.90
2012;DHT22;1009;51.436;6.972;2022-11-14T06:36:10;6.00;99.90
2012;DHT22;1009;51.436;6.972;2022-11-14T06:38:40;5.90;99.90
2012;DHT22;1009;51.436;6.972;2022-11-14T06:41:09;6.00;99.90
2012;DHT22;1009;51.436;6.972;2022-11-14T06:43:37;6.00;99.90
2012;DHT22;1009;51.436;6.972;2022-11-14T06:46:05;6.10;99.90
2012;DHT22;1009;51.436;6.972;2022-11-14T06:48:33;6.20;99.90
2012;DHT22;1009;51.436;6.972;2022-11-14T06:51:01;6.30;99.90
2012;DHT22;1009;51.436;6.972;2022-11-14T06:53:31;6.50;99.90
2012;DHT22;1009;51.436;6.972;2022-11-14T06:55:59;6.60;99.90
2012;DHT22;1009;51.436;6.972;2022-11-14T06:58:27;6.60;99.90
2012;DHT22;1009;51.436;6.972;2022-11-14T07:00:54;6.70;99.90
2012;DHT22;1009;51.436;6.972;2022-11-14T07:03:21;6.90;99.90
2012;DHT22;1009;51.436;6.972;2022-11-14T07:05:48;7.00;99.90
2012;DHT22;1009;51.436;6.972;2022-11-14T07:08:15;7.10;99.90
2012;DHT22;1009;51.436;6.972;2022-11-14T07:10:43;7.10;99.90
2012;DHT22;1009;51.436;6.972;2022-11-14T07:13:10;7.20;99.90
2012;DHT22;1009;51.436;6.972;2022-11-14T07:15:36;7.30;99.90
2012;DHT22;1009;51.436;6.972;2022-11-14T07:18:03;7.30;99.90
2012;DHT22;1009;51.436;6.972;2022-11-14T07:20:30;7.30;99.90
2012;DHT22;1009;51.436;6.972;2022-11-14T07:22:57;7.40;99.90
2012;DHT22;1009;51.436;6.972;2022-11-14T07:25:24;7.50;99.90
2012;DHT22;1009;51.436;6.972;2022-11-14T07:27:52;7.50;99.90
2012;DHT22;1009;51.436;6.972;2022-11-14T07:30:19;7.50;99.90
2012;DHT22;1009;51.436;6.972;2022-11-14T07:32:46;7.60;99.90
2012;DHT22;1009;51.436;6.972;2022-11-14T07:35:12;7.60;99.90
2012;DHT22;1009;51.436;6.972;2022-11-14T07:37:39;7.70;99.90
2012;DHT22;1009;51.436;6.972;2022-11-14T07:40:07;7.70;99.90
2012;DHT22;1009;51.436;6.972;2022-11-14T07:42:34;7.80;99.90
2012;DHT22;1009;51.436;6.972;2022-11-14T07:45:02;7.80;99.90
2012;DHT22;1009;51.436;6.972;2022-11-14T07:47:29;7.90;99.90
2012;DHT22;1009;51.436;6.972;2022-11-14T07:49:56;7.90;99.90
2012;DHT22;1009;51.436;6.972;2022-11-14T07:52:22;8.00;99.90
2012;DHT22;1009;51.436;6.972;2022-11-14T07:54:49;8.10;99.90
2012;DHT22;1009;51.436;6.972;2022-11-14T07:57:16;8.10;99.90
2012;DHT22;1009;51.436;6.972;2022-11-14T07:59:42;8.20;99.90
2012;DHT22;1009;51.436;6.972;2022-11-14T08:02:13;8.30;99.90
2012;DHT22;1009;51.436;6.972;2022-11-14T08:04:40;8.30;99.90
2012;DHT22;1009;51.436;6.972;2022-11-14T08:07:07;8.40;99.90
2012;DHT22;1009;51.436;6.972;2022-11-14T08:09:34;8.40;99.90
2012;DHT22;1009;51.436;6.972;2022-11-14T08:12:00;8.40;99.90
2012;DHT22;1009;51.436;6.972;2022-11-14T08:14:27;8.50;99.90
2012;DHT22;1009;51.436;6.972;2022-11-14T08:16:54;8.60;99.90
2012;DHT22;1009;51.436;6.972;2022-11-14T08:19:22;8.60;99.90
2012;DHT22;1009;51.436;6.972;2022-11-14T08:21:48;8.60;99.90
2012;DHT22;1009;51.436;6.972;2022-11-14T08:24:15;8.70;99.90
2012;DHT22;1009;51.436;6.972;2022-11-14T08:26:42;8.80;99.90
2012;DHT22;1009;51.436;6.972;2022-11-14T08:29:09;8.90;99.90
2012;DHT22;1009;51.436;6.972;2022-11-14T08:31:35;9.00;99.90
2012;DHT22;1009;51.436;6.972;2022-11-14T08:34:02;9.10;99.90
2012;DHT22;1009;51.436;6.972;2022-11-14T08:36:30;9.20;99.90
2012;DHT22;1009;51.436;6.972;2022-11-14T08:38:57;9.30;99.90
2012;DHT22;1009;51.436;6.972;2022-11-14T08:41:23;9.30;99.90
2012;DHT22;1009;51.436;6.972;2022-11-14T08:43:50;9.40;99.90
2012;DHT22;1009;51.436;6.972;2022-11-14T08:46:17;9.40;99.90
2012;DHT22;1009;51.436;6.972;2022-11-14T08:48:44;9.50;99.90
2012;DHT22;1009;51.436;6.972;2022-11-14T08:51:10;9.60;99.90
2012;DHT22;1009;51.436;6.972;2022-11-14T08:53:38;9.60;99.90
2012;DHT22;1009;51.436;6.972;2022-11-14T08:56:05;9.60;99.90
2012;DHT22;1009;51.436;6.972;2022-11-14T08:58:32;9.50;99.90
2012;DHT22;1009;51.436;6.972;2022-11-14T09:01:00;9.50;99.90
2012;DHT22;1009;51.436;6.972;2022-11-14T09:03:27;9.50;99.90
2012;DHT22;1009;51.436;6.972;2022-11-14T09:05:54;9.50;99.90
2012;DHT22;1009;51.436;6.972;2022-11-14T09:08:21;9.50;99.90
2012;DHT22;1009;51.436;6.972;2022-11-14T09:10:49;9.50;99.90
2012;DHT22;1009;51.436;6.972;2022-11-14T09:13:16;9.40;99.90
2012;DHT22;1009;51.436;6.972;2022-11-14T09:15:43;9.40;99.90
2012;DHT22;1009;51.436;6.972;2022-11-14T09:18:13;9.50;99.90
2012;DHT22;1009;51.436;6.972;2022-11-14T09:20:40;9.30;99.90
2012;DHT22;1009;51.436;6.972;2022-11-14T09:23:08;9.30;99.90
2012;DHT22;1009;51.436;6.972;2022-11-14T09:25:35;9.20;99.90
2012;DHT22;1009;51.436;6.972;2022-11-14T09:28:05;9.20;99.90
2012;DHT22;1009;51.436;6.972;2022-11-14T09:30:32;9.20;99.90
2012;DHT22;1009;51.436;6.972;2022-11-14T09:32:59;9.10;99.90
2012;DHT22;1009;51.436;6.972;2022-11-14T09:35:27;9.00;99.90
2012;DHT22;1009;51.436;6.972;2022-11-14T09:38:00;9.00;99.90
2012;DHT22;1009;51.436;6.972;2022-11-14T09:40:28;9.00;99.90
2012;DHT22;1009;51.436;6.972;2022-11-14T09:43:14;9.10;99.90
2012;DHT22;1009;51.436;6.972;2022-11-14T09:45:48;9.10;99.90
2012;DHT22;1009;51.436;6.972;2022-11-14T09:48:19;9.10;99.90
2012;DHT22;1009;51.436;6.972;2022-11-14T09:50:52;9.10;99.90
2012;DHT22;1009;51.436;6.972;2022-11-14T09:53:31;9.10;99.90
2012;DHT22;1009;51.436;6.972;2022-11-14T09:55:59;9.10;99.90
2012;DHT22;1009;51.436;6.972;2022-11-14T09:58:27;9.10;99.90
2012;DHT22;1009;51.436;6.972;2022-11-14T10:00:57;9.10;99.90
2012;DHT22;1009;51.436;6.972;2022-11-14T10:03:35;9.10;99.90
2012;DHT22;1009;51.436;6.972;2022-11-14T10:06:16;9.10;99.90
2012;DHT22;1009;51.436;6.972;2022-11-14T10:09:06;9.10;99.90
2012;DHT22;1009;51.436;6.972;2022-11-14T10:11:38;9.00;99.90
2012;DHT22;1009;51.436;6.972;2022-11-14T10:14:40;9.00;99.90
2012;DHT22;1009;51.436;6.972;2022-11-14T10:17:25;9.00;99.90
2012;DHT22;1009;51.436;6.972;2022-11-14T10:20:00;9.00;99.90
2012;DHT22;1009;51.436;6.972;2022-11-14T10:22:43;9.00;99.90
2012;DHT22;1009;51.436;6.972;2022-11-14T10:25:21;9.10;99.90
2012;DHT22;1009;51.436;6.972;2022-11-14T10:28:14;9.10;99.90
2012;DHT22;1009;51.436;6.972;2022-11-14T10:30:53;8.90;99.90
2012;DHT22;1009;51.436;6.972;2022-11-14T10:33:30;8.80;99.90
2012;DHT22;1009;51.436;6.972;2022-11-14T10:36:05;8.80;99.90
2012;DHT22;1009;51.436;6.972;2022-11-14T10:38:35;8.80;99.90
2012;DHT22;1009;51.436;6.972;2022-11-14T10:41:04;8.80;99.90
2012;DHT22;1009;51.436;6.972;2022-11-14T10:43:35;8.70;99.90
2012;DHT22;1009;51.436;6.972;2022-11-14T10:46:11;8.70;99.90
2012;DHT22;1009;51.436;6.972;2022-11-14T10:48:43;8.70;99.90
2012;DHT22;1009;51.436;6.972;2022-11-14T10:51:16;8.70;99.90
2012;DHT22;1009;51.436;6.972;2022-11-14T10:53:51;8.80;99.90
2012;DHT22;1009;51.436;6.972;2022-11-14T10:56:20;8.80;99.90
2012;DHT22;1009;51.436;6.972;2022-11-14T10:58:48;8.80;99.90
2012;DHT22;1009;51.436;6.972;2022-11-14T11:01:39;8.80;99.90
2012;DHT22;1009;51.436;6.972;2022-11-14T11:04:12;8.90;99.90
2012;DHT22;1009;51.436;6.972;2022-11-14T11:06:40;9.00;99.90
2012;DHT22;1009;51.436;6.972;2022-11-14T11:09:07;9.10;99.90
2012;DHT22;1009;51.436;6.972;2022-11-14T11:11:55;9.20;99.90
2012;DHT22;1009;51.436;6.972;2022-11-14T11:14:22;9.30;99.90
2012;DHT22;1009;51.436;6.972;2022-11-14T11:17:07;9.30;99.90
2012;DHT22;1009;51.436;6.972;2022-11-14T11:19:33;9.30;99.90
2012;DHT22;1009;51.436;6.972;2022-11-14T11:22:00;9.40;99.90
2012;DHT22;1009;51.436;6.972;2022-11-14T11:24:31;9.60;99.90
2012;DHT22;1009;51.436;6.972;2022-11-14T11:27:20;9.60;99.90
2012;DHT22;1009;51.436;6.972;2022-11-14T11:30:01;9.70;99.90
2012;DHT22;1009;51.436;6.972;2022-11-14T11:32:31;9.70;99.90
2012;DHT22;1009;51.436;6.972;2022-11-14T11:35:01;9.70;99.90
2012;DHT22;1009;51.436;6.972;2022-11-14T11:37:31;9.80;99.90
2012;DHT22;1009;51.436;6.972;2022-11-14T11:40:04;10.10;99.90
2012;DHT22;1009;51.436;6.972;2022-11-14T11:42:35;10.50;99.90
2012;DHT22;1009;51.436;6.972;2022-11-14T11:45:09;10.80;99.90
2012;DHT22;1009;51.436;6.972;2022-11-14T11:47:40;10.90;99.90
2012;DHT22;1009;51.436;6.972;2022-11-14T11:50:14;10.90;99.90
2012;DHT22;1009;51.436;6.972;2022-11-14T11:52:47;10.90;99.90
2012;DHT22;1009;51.436;6.972;2022-11-14T11:55:17;10.90;99.90
2012;DHT22;1009;51.436;6.972;2022-11-14T11:57:50;10.80;99.90
2012;DHT22;1009;51.436;6.972;2022-11-14T12:00:20;10.70;99.90
2012;DHT22;1009;51.436;6.972;2022-11-14T12:02:50;10.80;99.90
2012;DHT22;1009;51.436;6.972;2022-11-14T12:05:23;11.00;99.90
2012;DHT22;1009;51.436;6.972;2022-11-14T12:07:56;11.20;99.90
2012;DHT22;1009;51.436;6.972;2022-11-14T12:10:26;11.50;99.90
2012;DHT22;1009;51.436;6.972;2022-11-14T12:13:18;11.60;99.90
2012;DHT22;1009;51.436;6.972;2022-11-14T12:15:55;11.70;99.90
2012;DHT22;1009;51.436;6.972;2022-11-14T12:18:43;11.60;99.90
2012;DHT22;1009;51.436;6.972;2022-11-14T12:21:24;11.60;99.90
2012;DHT22;1009;51.436;6.972;2022-11-14T12:24:07;11.50;99.90
2012;DHT22;1009;51.436;6.972;2022-11-14T12:29:57;11.50;99.90
2012;DHT22;1009;51.436;6.972;2022-11-14T12:32:30;11.20;99.90
2012;DHT22;1009;51.436;6.972;2022-11-14T12:35:02;11.00;99.90
2012;DHT22;1009;51.436;6.972;2022-11-14T12:37:32;11.00;99.90
2012;DHT22;1009;51.436;6.972;2022-11-14T12:40:02;11.10;99.90
2012;DHT22;1009;51.436;6.972;2022-11-14T12:42:30;10.90;99.90
2012;DHT22;1009;51.436;6.972;2022-11-14T12:44:57;10.80;99.90
2012;DHT22;1009;51.436;6.972;2022-11-14T12:47:25;10.70;99.90
2012;DHT22;1009;51.436;6.972;2022-11-14T12:52:48;10.60;99.90
2012;DHT22;1009;51.436;6.972;2022-11-14T12:55:55;10.60;99.90
2012;DHT22;1009;51.436;6.972;2022-11-14T12:58:47;10.60;99.90
2012;DHT22;1009;51.436;6.972;2022-11-14T13:01:40;10.70;99.90
2012;DHT22;1009;51.436;6.972;2022-11-14T13:04:21;10.70;99.90
2012;DHT22;1009;51.436;6.972;2022-11-14T13:07:02;10.60;99.90
2012;DHT22;1009;51.436;6.972;2022-11-14T13:09:32;10.70;99.90
2012;DHT22;1009;51.436;6.972;2022-11-14T13:12:23;10.70;99.90
2012;DHT22;1009;51.436;6.972;2022-11-14T13:15:28;10.70;99.90
2012;DHT22;1009;51.436;6.972;2022-11-14T13:18:18;10.70;99.90
2012;DHT22;1009;51.436;6.972;2022-11-14T13:21:04;10.70;99.90
2012;DHT22;1009;51.436;6.972;2022-11-14T13:23:55;10.60;99.90
2012;DHT22;1009;51.436;6.972;2022-11-14T13:26:51;10.70;99.90
2012;DHT22;1009;51.436;6.972;2022-11-14T13:35:49;11.00;99.90
2012;DHT22;1009;51.436;6.972;2022-11-14T13:38:52;11.00;99.90
2012;DHT22;1009;51.436;6.972;2022-11-14T13:44:46;10.90;99.90
2012;DHT22;1009;51.436;6.972;2022-11-14T13:47:41;10.90;99.90
2012;DHT22;1009;51.436;6.972;2022-11-14T13:50:13;10.90;99.90
2012;DHT22;1009;51.436;6.972;2022-11-14T13:52:43;11.00;99.90
2012;DHT22;1009;51.436;6.972;2022-11-14T13:55:18;11.00;99.90
2012;DHT22;1009;51.436;6.972;2022-11-14T13:57:57;10.90;99.90
2012;DHT22;1009;51.436;6.972;2022-11-14T14:00:28;10.90;99.90
2012;DHT22;1009;51.436;6.972;2022-11-14T14:03:17;11.00;99.90
2012;DHT22;1009;51.436;6.972;2022-11-14T14:05:56;10.90;99.90
2012;DHT22;1009;51.436;6.972;2022-11-14T14:08:36;10.90;99.90
2012;DHT22;1009;51.436;6.972;2022-11-14T14:11:23;10.80;99.90
2012;DHT22;1009;51.436;6.972;2022-11-14T14:14:02;10.80;99.90
2012;DHT22;1009;51.436;6.972;2022-11-14T14:16:38;10.70;99.90
2012;DHT22;1009;51.436;6.972;2022-11-14T14:19:13;10.70;99.90
2012;DHT22;1009;51.436;6.972;2022-11-14T14:21:46;10.70;99.90
2012;DHT22;1009;51.436;6.972;2022-11-14T14:24:30;10.80;99.90
2012;DHT22;1009;51.436;6.972;2022-11-14T14:27:07;10.80;99.90
2012;DHT22;1009;51.436;6.972;2022-11-14T14:29:44;10.80;99.90
2012;DHT22;1009;51.436;6.972;2022-11-14T14:32:15;10.90;99.90
2012;DHT22;1009;51.436;6.972;2022-11-14T14:34:42;10.80;99.90
2012;DHT22;1009;51.436;6.972;2022-11-14T14:37:16;10.70;99.90
2012;DHT22;1009;51.436;6.972;2022-11-14T14:39:55;10.70;99.90
2012;DHT22;1009;51.436;6.972;2022-11-14T14:42:22;10.70;99.90
2012;DHT22;1009;51.436;6.972;2022-11-14T14:44:51;10.70;99.90
2012;DHT22;1009;51.436;6.972;2022-11-14T14:47:32;10.70;99.90
2012;DHT22;1009;51.436;6.972;2022-11-14T14:50:00;10.70;99.90
2012;DHT22;1009;51.436;6.972;2022-11-14T14:52:29;10.80;99.90
2012;DHT22;1009;51.436;6.972;2022-11-14T14:54:57;10.70;99.90
2012;DHT22;1009;51.436;6.972;2022-11-14T14:57:27;10.70;99.90
2012;DHT22;1009;51.436;6.972;2022-11-14T15:00:00;10.70;99.90
2012;DHT22;1009;51.436;6.972;2022-11-14T15:02:27;10.70;99.90
2012;DHT22;1009;51.436;6.972;2022-11-14T15:04:54;10.60;99.90
2012;DHT22;1009;51.436;6.972;2022-11-14T15:07:23;10.50;99.90
2012;DHT22;1009;51.436;6.972;2022-11-14T15:09:52;10.50;99.90
2012;DHT22;1009;51.436;6.972;2022-11-14T15:12:19;10.50;99.90
2012;DHT22;1009;51.436;6.972;2022-11-14T15:14:47;10.40;99.90
2012;DHT22;1009;51.436;6.972;2022-11-14T15:17:15;10.40;99.90
2012;DHT22;1009;51.436;6.972;2022-11-14T15:19:44;10.40;99.90
2012;DHT22;1009;51.436;6.972;2022-11-14T15:22:24;10.40;99.90
2012;DHT22;1009;51.436;6.972;2022-11-14T15:25:16;10.40;99.90
2012;DHT22;1009;51.436;6.972;2022-11-14T15:27:46;10.40;99.90
2012;DHT22;1009;51.436;6.972;2022-11-14T15:30:20;10.40;99.90
2012;DHT22;1009;51.436;6.972;2022-11-14T15:32:51;10.40;99.90
2012;DHT22;1009;51.436;6.972;2022-11-14T15:35:27;10.40;99.90
2012;DHT22;1009;51.436;6.972;2022-11-14T15:38:18;10.40;99.90
2012;DHT22;1009;51.436;6.972;2022-11-14T15:41:08;10.30;99.90
2012;DHT22;1009;51.436;6.972;2022-11-14T15:43:37;10.20;99.90
2012;DHT22;1009;51.436;6.972;2022-11-14T15:46:03;10.10;99.90
2012;DHT22;1009;51.436;6.972;2022-11-14T15:48:32;10.10;99.90
2012;DHT22;1009;51.436;6.972;2022-11-14T15:50:59;10.10;99.90
2012;DHT22;1009;51.436;6.972;2022-11-14T15:53:26;10.10;99.90
2012;DHT22;1009;51.436;6.972;2022-11-14T15:55:54;10.10;99.90
2012;DHT22;1009;51.436;6.972;2022-11-14T15:58:23;10.00;99.90
2012;DHT22;1009;51.436;6.972;2022-11-14T16:00:52;10.00;99.90
2012;DHT22;1009;51.436;6.972;2022-11-14T16:03:21;10.00;99.90
2012;DHT22;1009;51.436;6.972;2022-11-14T16:05:49;10.10;99.90
2012;DHT22;1009;51.436;6.972;2022-11-14T16:08:16;10.00;99.90
2012;DHT22;1009;51.436;6.972;2022-11-14T16:10:43;10.00;99.90
2012;DHT22;1009;51.436;6.972;2022-11-14T16:13:10;10.10;99.90
2012;DHT22;1009;51.436;6.972;2022-11-14T16:15:37;10.00;99.90
2012;DHT22;1009;51.436;6.972;2022-11-14T16:18:04;10.10;99.90
2012;DHT22;1009;51.436;6.972;2022-11-14T16:20:31;10.00;99.90
2012;DHT22;1009;51.436;6.972;2022-11-14T16:23:03;10.00;99.90
2012;DHT22;1009;51.436;6.972;2022-11-14T16:25:31;10.00;99.90
2012;DHT22;1009;51.436;6.972;2022-11-14T16:27:57;9.90;99.90
2012;DHT22;1009;51.436;6.972;2022-11-14T16:30:25;9.80;99.90
2012;DHT22;1009;51.436;6.972;2022-11-14T16:32:52;9.80;99.90
2012;DHT22;1009;51.436;6.972;2022-11-14T16:35:20;9.80;99.90
2012;DHT22;1009;51.436;6.972;2022-11-14T16:37:47;9.80;99.90
2012;DHT22;1009;51.436;6.972;2022-11-14T16:40:17;9.80;99.90
2012;DHT22;1009;51.436;6.972;2022-11-14T16:42:45;9.90;99.90
2012;DHT22;1009;51.436;6.972;2022-11-14T16:45:12;9.90;99.90
2012;DHT22;1009;51.436;6.972;2022-11-14T16:47:39;9.90;99.90
2012;DHT22;1009;51.436;6.972;2022-11-14T16:50:06;10.00;99.90